Aérodrome :
LOGIN :

S'inscrire | Disclaimer

   EN    FR    IT 

 










Légende :    VFR   VFR Marginal   IFR   IFR Intensif   IFR Très Intensif
Visi : 
Plafond : 
>= 8 km
>= 3000ft
5 à 8 km
1000 à 3000 ft
1500m à 5 km
500 à 1000 ft
800 à 1500m
200 à 500 ft
< 800m
< 200 ft
Symboles :   Orages  Brouillard  Fortes neiges  Fortes précipitations  Vent > 20 kt
SIGMETs :   Divers  Orages  Givrage  Turbulence  Onde Orograph.  Cendres Volcan.






- Altitude de l'aérodrome : 86 ft


LERT - Rota Navy

DERNIER METAR :
  • 150525Z 00000KT 2000 0500NE R28/0650D BCFG NSC 09/09 Q1018 NOSIG

METARs EXPIRÉS :
  • 150506Z VRB01KT 4000 BCFG NSC 08/08 Q1018 NOSIG
  • 150428Z 06001KT 0800 R28/0400N FG NSC 08/08 Q1018 NOSIG
  • 150400Z VRB02KT 0600 R10/1500N FG NSC 08/08 Q1018 NOSIG
  • 150322Z VRB01KT 0400 R10/0500D FG NSC 08/08 Q1019 NOSIG
  • 150308Z 32001KT 8000 3000NW R10/1400N BCFG NSC 09/09 Q1019 NOSIG

TAF TAF LERT
Valide du 15 à 06h jusqu'au 15 à 15h UTC


150500Z 1506/1515 08004KT 9999 SCT035 SCT045
TEMPO 1506/1509 4000 BR
PROB40
TEMPO 1506/1509 0500 FG VV001
PROB30
TEMPO 1512/1515 17010KT



MET'MAP, la Météo Aéronautique d'un coup d'oeil ! - Copyright ORBIFLY Décembre 2007 - Disclaimer

ORBIFLY MET'MAP TEAM :

Programmation & Développement : Alexandra Zaïnal
Sur une idée originale de : Baudouin d'Aumeries
Assistance à la programmation : Marc-Olivier Méhu
Soutien technique & logistique : Manuel Goepfert

Contact : metmap@orbifly.com




SOURCES & CREDITS :

   NOAA